Kezdőlap
METAR-TAF:

METAR-TAF

Repülőterek :

Marseille Provence repülőtér

Marseille, Franciaország

földrajzi szélesség: 43-27N, földrajzi hosszúság: 005-14E, magasság: 6 m

Jelenlegi meteorológiai megfigyelések

A jelentés 31 perccel ezelõtt készült, 20:00 UTC
Délkeleti szél 3 kt
Hőmérséklet 10°C
Páratartalom 87%
Légköri nyomás 1033 hPa
Látótávolság 10 km, vagy több
felhőtlen 1500 m magasságban, és nincs gomolyfelhõ

METAR: LFML 222000Z AUTO 13003KT CAVOK 10/08 Q1033 NOSIG

Idő: 21:31 (20:31 UTC)

Előrejelzés

A jelentés 6 órával és 31 perccel ezelõtt készült, 14:00 UTC
Az előrejelzés 22-én 15 óra UTC és 23-én 21 óra UTC között érvényes
Különbözõ irányokból fújó szél 4 kt
Látótávolság 10 km, vagy több
felhőtlen 1500 m magasságban, és nincs gomolyfelhõ

TAF: LFML 221400Z 2215/2321 VRB04KT CAVOK TX17/2315Z TN06/2306Z

Meteorológiai megfigyelések és előrejelzések több, mint 4000 repülőtéren (METAR és TAF jelentéseket).

A térképen piros és sárga pontok jelzik az elérhető meteorológiai állomásokat.

Mozgassa az egeret a pont fölött, hogy megjelenjen az állomás neve.

Azután kattintson az időjárási megfigyelések és előrejelzések megtekintéséhez.

A térkép megváltoztatása: kattintson a fekete keresztel jelölt zöld gombra ráközelítéshez, a vonallal jelölt zöld gombra távolításhoz, vagy a zöld nyilakra a szomszédos térképek eléréséhez.


METAR-TAF: